Terminal Aerodrome Forecast
Issued by NWS North Platte, NE

Home | Current Version | Previous Version | Graphics & Text | Print | Product List | Glossary Off
Versions: 1 2 3 4 5 6 7 8 9 10 11 12 13 14

000
FTUS43 KLBF 231100
TAFVTN
TAF
KVTN 231129Z 2312/2412 VRB06KT P6SM SCT012 BKN100
      TEMPO 2312/2315 BKN015
     FM231600 17011KT P6SM SCT025 BKN100
     FM232200 20011KT P6SM SCT070=

USA.gov is the U.S. government's official web portal to all federal, state and local government web resources and services.